createdAt,value
2022-08-02T00:01:40.894Z,101594.81
2022-08-02T00:04:13.692Z,101536.41
2022-08-02T00:06:46.623Z,101562.97
2022-08-02T00:09:19.325Z,101548.06
2022-08-02T00:11:54.381Z,101596.88
2022-08-02T00:14:27.190Z,101583.66
2022-08-02T00:17:00.098Z,101548.38
2022-08-02T00:19:33.154Z,101538.94
2022-08-02T00:22:05.954Z,101503.28
2022-08-02T00:24:38.719Z,101542.16
2022-08-02T00:27:11.420Z,101635.78
2022-08-02T00:29:52.937Z,101583.00
2022-08-02T00:32:28.476Z,101574.69
2022-08-02T00:35:01.162Z,101641.66
2022-08-02T00:37:38.942Z,101642.84
2022-08-02T00:40:12.646Z,101582.66
2022-08-02T00:42:45.500Z,101600.53
2022-08-02T00:45:18.198Z,101572.03
2022-08-02T00:47:52.830Z,101601.31
2022-08-02T00:50:26.520Z,101581.66
2022-08-02T00:52:59.763Z,101602.66
2022-08-02T00:55:32.898Z,101604.13
2022-08-02T00:58:55.515Z,101572.03
2022-08-02T01:02:24.888Z,101561.50
2022-08-02T01:04:57.688Z,101572.59
2022-08-02T01:07:30.505Z,101608.22
2022-08-02T01:10:11.062Z,101539.22
2022-08-02T01:12:45.120Z,101546.78
2022-08-02T01:15:18.843Z,101504.94
2022-08-02T01:18:15.490Z,101603.09
2022-08-02T01:21:34.234Z,101545.25
2022-08-02T01:24:31.131Z,101611.06
2022-08-02T01:27:39.959Z,101552.31
2022-08-02T01:30:15.086Z,101527.31
2022-08-02T01:32:55.503Z,101591.19
2022-08-02T01:35:47.390Z,101586.81
2022-08-02T01:38:39.245Z,101512.03
2022-08-02T01:41:19.482Z,101524.25
2022-08-02T01:43:58.030Z,101567.66
2022-08-02T01:46:34.385Z,101566.19
2022-08-02T01:49:15.854Z,101579.13
2022-08-02T01:52:13.092Z,101550.06
2022-08-02T01:55:00.435Z,101596.78
2022-08-02T01:57:45.372Z,101581.25
2022-08-02T02:00:22.891Z,101513.53
2022-08-02T02:02:59.010Z,101480.13
2022-08-02T02:05:35.416Z,101461.94
2022-08-02T02:08:09.637Z,101471.31
2022-08-02T02:10:45.670Z,101579.47
2022-08-02T02:13:21.520Z,101535.69
2022-08-02T02:16:07.327Z,101531.84
2022-08-02T02:18:43.841Z,101461.38
2022-08-02T02:21:16.730Z,101502.84
2022-08-02T02:23:50.112Z,101513.03
2022-08-02T02:26:31.317Z,101560.47
2022-08-02T02:29:08.975Z,101467.88
2022-08-02T02:31:47.828Z,101517.06
2022-08-02T02:34:28.516Z,101439.50
2022-08-02T02:37:12.388Z,101445.06
2022-08-02T02:39:46.452Z,101522.91
2022-08-02T02:42:26.405Z,101538.47
2022-08-02T02:45:00.984Z,101548.38
2022-08-02T02:47:40.456Z,101552.78
2022-08-02T02:50:17.534Z,101522.63
2022-08-02T02:52:52.436Z,101527.09
2022-08-02T02:55:28.570Z,101494.84
2022-08-02T03:02:00.477Z,101510.50
2022-08-02T03:04:35.995Z,101505.09
2022-08-02T03:07:27.342Z,101524.63
2022-08-02T03:10:01.416Z,101481.72
2022-08-02T03:12:35.878Z,101492.69
2022-08-02T03:15:12.987Z,101430.13
2022-08-02T03:17:46.578Z,101464.53
2022-08-02T03:20:22.695Z,101529.41
2022-08-02T03:22:55.459Z,101419.13
2022-08-02T03:25:28.328Z,101542.97
2022-08-02T03:28:03.264Z,101429.03
2022-08-02T03:30:37.242Z,101466.94
2022-08-02T03:33:10.933Z,101424.34
2022-08-02T03:35:45.985Z,101467.88
2022-08-02T03:38:22.680Z,101470.25
2022-08-02T03:41:03.812Z,101507.38
2022-08-02T03:43:41.254Z,101539.00
2022-08-02T03:46:21.658Z,101532.81
2022-08-02T03:48:56.169Z,101486.53
2022-08-02T03:51:29.274Z,101500.75
2022-08-02T03:54:03.291Z,101407.69
2022-08-02T03:56:36.514Z,101467.22
2022-08-02T03:59:13.002Z,101516.41
2022-08-02T04:01:46.497Z,101451.53
2022-08-02T04:04:19.314Z,101456.22
2022-08-02T04:06:55.523Z,101512.50
2022-08-02T04:09:28.301Z,101508.22
2022-08-02T04:12:01.001Z,101431.78
2022-08-02T04:14:36.370Z,101499.03
2022-08-02T04:17:12.780Z,101496.00
2022-08-02T04:20:00.956Z,101463.31
2022-08-02T04:22:55.239Z,101481.75
2022-08-02T04:25:34.231Z,101430.00
2022-08-02T04:28:17.239Z,101494.06
2022-08-02T04:30:52.193Z,101459.53
2022-08-02T04:33:25.897Z,101473.44
2022-08-02T04:35:59.806Z,101450.34
2022-08-02T04:38:32.898Z,101506.88
2022-08-02T04:41:05.583Z,101412.22
2022-08-02T04:43:38.298Z,101427.00
2022-08-02T04:46:11.241Z,101486.38
2022-08-02T04:48:44.150Z,101497.34
2022-08-02T04:51:16.802Z,101531.22
2022-08-02T04:53:52.055Z,101425.63
2022-08-02T04:56:24.757Z,101437.59
2022-08-02T04:58:57.410Z,101450.03
2022-08-02T05:01:30.224Z,101464.22
2022-08-02T05:04:09.889Z,101476.56
2022-08-02T05:06:42.602Z,101426.41
2022-08-02T05:09:15.228Z,101414.66
2022-08-02T05:11:54.895Z,101464.63
2022-08-02T05:14:28.041Z,101439.16
2022-08-02T05:17:00.825Z,101516.16
2022-08-02T05:19:36.120Z,101497.47
2022-08-02T05:22:09.483Z,101456.09
2022-08-02T05:24:42.286Z,101448.34
2022-08-02T05:27:21.379Z,101476.09
2022-08-02T05:29:57.014Z,101489.91
2022-08-02T05:32:38.337Z,101438.88
2022-08-02T05:35:11.785Z,101475.00
2022-08-02T05:37:44.465Z,101439.59
2022-08-02T05:40:25.329Z,101440.28
2022-08-02T05:42:58.531Z,101409.34
2022-08-02T05:45:42.108Z,101413.38
2022-08-02T05:48:17.976Z,101477.19
2022-08-02T05:51:07.104Z,101480.22
2022-08-02T05:54:19.455Z,101455.19
2022-08-02T05:57:04.367Z,101500.88
2022-08-02T06:00:07.453Z,101516.53
2022-08-02T06:02:43.072Z,101528.19
2022-08-02T06:05:32.226Z,101492.00
2022-08-02T06:08:14.423Z,101474.50
2022-08-02T06:10:49.017Z,101447.50
2022-08-02T06:13:22.084Z,101455.00
2022-08-02T06:15:59.548Z,101489.50
2022-08-02T06:18:34.161Z,101448.81
2022-08-02T06:22:34.994Z,101465.78
2022-08-02T06:24:12.396Z,101450.06
2022-08-02T06:26:45.836Z,101536.88
2022-08-02T06:29:37.003Z,101542.94
2022-08-02T06:32:11.753Z,101478.59
2022-08-02T06:34:48.522Z,101445.06
2022-08-02T06:37:54.546Z,101490.66
2022-08-02T06:40:43.731Z,101499.44
2022-08-02T06:43:30.961Z,101517.75
2022-08-02T06:46:38.109Z,101489.56
2022-08-02T06:49:01.762Z,101468.56
2022-08-02T06:51:34.891Z,101436.16
2022-08-02T06:54:08.080Z,101497.53
2022-08-02T06:56:46.044Z,101521.19
2022-08-02T06:59:18.920Z,101476.84
2022-08-02T07:01:51.863Z,101447.34
2022-08-02T07:04:24.645Z,101457.22
2022-08-02T07:06:58.227Z,101450.72
2022-08-02T07:09:31.067Z,101517.88
2022-08-02T07:12:13.962Z,101525.13
2022-08-02T07:14:50.821Z,101439.53
2022-08-02T07:17:23.655Z,101500.75
2022-08-02T07:20:05.196Z,101540.50
2022-08-02T07:22:47.130Z,101464.28
2022-08-02T07:25:22.304Z,101494.41
2022-08-02T07:27:56.515Z,101448.63
2022-08-02T07:30:40.441Z,101488.06
2022-08-02T07:33:37.724Z,101510.59
2022-08-02T07:36:16.693Z,101438.56
2022-08-02T07:38:53.606Z,101490.31
2022-08-02T07:41:26.430Z,101456.09
2022-08-02T07:44:12.300Z,101485.06
2022-08-02T07:46:46.106Z,101482.88
2022-08-02T07:49:19.041Z,101488.91
2022-08-02T07:51:51.797Z,101438.25
2022-08-02T07:54:25.395Z,101493.50
2022-08-02T07:57:08.178Z,101500.09
2022-08-02T07:59:50.628Z,101476.72
2022-08-02T08:02:29.271Z,101467.34
2022-08-02T08:05:05.071Z,101480.22
2022-08-02T08:07:50.873Z,101467.03
2022-08-02T08:10:28.887Z,101440.31
2022-08-02T08:13:01.710Z,101447.84
2022-08-02T08:15:34.464Z,101491.06
2022-08-02T08:20:58.091Z,101478.19
2022-08-02T08:23:30.939Z,101444.28
2022-08-02T08:26:15.885Z,101455.97
2022-08-02T08:28:48.825Z,101496.06
2022-08-02T08:31:29.007Z,101508.25
2022-08-02T08:34:03.528Z,101472.81
2022-08-02T08:36:44.869Z,101514.13
2022-08-02T08:39:17.993Z,101456.19
2022-08-02T08:42:05.393Z,101500.06
2022-08-02T08:44:38.117Z,101465.34
2022-08-02T08:47:14.689Z,101463.00
2022-08-02T08:49:57.439Z,101488.81
2022-08-02T08:52:48.035Z,101489.22
2022-08-02T08:55:25.335Z,101499.09
2022-08-02T08:58:05.474Z,101453.28
2022-08-02T09:03:33.960Z,101476.00
2022-08-02T09:06:07.267Z,101438.34
2022-08-02T09:08:40.069Z,101469.00
2022-08-02T09:11:16.398Z,101466.69
2022-08-02T09:14:10.960Z,101447.31
2022-08-02T09:16:46.624Z,101456.34
2022-08-02T09:19:27.363Z,101407.28
2022-08-02T09:22:33.270Z,101469.66
2022-08-02T09:25:19.022Z,101408.31
2022-08-02T09:27:52.447Z,101448.16
2022-08-02T09:30:50.562Z,101461.06
2022-08-02T09:33:29.049Z,101473.44
2022-08-02T09:36:20.613Z,101475.50
2022-08-02T09:39:06.760Z,101497.53
2022-08-02T09:41:46.971Z,101412.13
2022-08-02T10:03:13.622Z,101449.56
2022-08-02T10:06:28.623Z,101426.88
2022-08-02T10:09:02.355Z,101460.94
2022-08-02T10:11:42.592Z,101451.69
2022-08-02T10:20:32.156Z,101440.50
2022-08-02T10:23:08.818Z,101465.56
2022-08-02T10:26:04.926Z,101409.63
2022-08-02T10:31:53.612Z,101441.56
2022-08-02T10:34:57.499Z,101435.84
2022-08-02T10:37:37.442Z,101428.22
2022-08-02T10:40:45.689Z,101405.50
2022-08-02T10:43:32.010Z,101478.78
2022-08-02T10:46:40.185Z,101475.84
2022-08-02T10:52:11.206Z,101432.50
2022-08-02T10:55:13.385Z,101394.06
2022-08-02T11:03:40.129Z,101400.16
2022-08-02T11:06:26.007Z,101391.41
2022-08-02T11:09:47.421Z,101441.16
2022-08-02T11:17:06.847Z,101464.88
2022-08-02T11:24:28.990Z,101417.00
2022-08-02T11:27:24.945Z,101386.59
2022-08-02T11:48:59.910Z,101464.09
2022-08-02T11:56:42.794Z,101456.16
2022-08-02T11:59:28.552Z,101420.75
2022-08-02T12:26:50.114Z,101392.16
2022-08-02T12:41:54.783Z,101422.53
2022-08-02T12:49:02.332Z,101371.13
2022-08-02T12:52:40.210Z,101418.06
2022-08-02T12:56:19.508Z,101389.84
2022-08-02T13:33:49.434Z,101328.09
2022-08-02T13:39:37.632Z,101361.97
2022-08-02T13:42:35.373Z,101318.38
2022-08-02T13:45:13.476Z,101337.09
2022-08-02T13:48:17.177Z,101386.97
2022-08-02T13:50:57.387Z,101321.91
2022-08-02T13:53:33.162Z,101368.59
2022-08-02T13:56:19.689Z,101378.16
2022-08-02T13:59:56.363Z,101368.41
2022-08-02T14:02:25.923Z,101323.81
2022-08-02T14:10:41.029Z,101306.63
2022-08-02T14:13:17.564Z,101325.44
2022-08-02T14:16:06.083Z,101340.88
2022-08-02T14:18:46.451Z,101303.84
2022-08-02T14:21:21.793Z,101277.81
2022-08-02T14:23:54.505Z,101328.44
2022-08-02T14:26:27.876Z,101330.97
2022-08-02T14:29:01.076Z,101271.72
2022-08-02T14:31:33.873Z,101337.16
2022-08-02T14:34:08.931Z,101271.00
2022-08-02T14:36:41.805Z,101286.38
2022-08-02T14:39:18.475Z,101339.19
2022-08-02T14:41:59.235Z,101301.78
2022-08-02T14:44:33.168Z,101338.84
2022-08-02T14:47:13.605Z,101314.25
2022-08-02T14:49:50.093Z,101292.59
2022-08-02T14:52:23.548Z,101326.59
2022-08-02T14:54:56.680Z,101258.94
2022-08-02T14:57:29.339Z,101292.59
2022-08-02T15:00:12.769Z,101272.06
2022-08-02T15:02:45.431Z,101290.88
2022-08-02T15:05:18.175Z,101270.09
2022-08-02T15:07:53.258Z,101250.38
2022-08-02T15:10:25.942Z,101274.25
2022-08-02T15:12:58.559Z,101282.78
2022-08-02T15:15:43.781Z,101312.94
2022-08-02T15:18:16.828Z,101264.47
2022-08-02T15:20:57.564Z,101290.47
2022-08-02T15:23:34.844Z,101300.25
2022-08-02T15:26:20.859Z,101281.56
2022-08-02T15:28:55.383Z,101300.25
2022-08-02T15:31:33.604Z,101272.84
2022-08-02T15:34:06.559Z,101226.03
2022-08-02T15:36:39.692Z,101248.63
2022-08-02T15:39:20.941Z,101228.13
2022-08-02T15:41:53.602Z,101257.69
2022-08-02T15:44:26.327Z,101276.72
2022-08-02T15:46:58.998Z,101244.25
2022-08-02T15:49:31.820Z,101282.00
2022-08-02T15:52:05.086Z,101281.28
2022-08-02T15:54:40.621Z,101237.97
2022-08-02T15:57:13.465Z,101216.75
2022-08-02T15:59:46.901Z,101255.69
2022-08-02T16:02:21.109Z,101280.31
2022-08-02T16:04:53.822Z,101226.84
2022-08-02T16:07:26.581Z,101215.03
2022-08-02T16:10:11.655Z,101211.72
2022-08-02T16:12:44.929Z,101245.97
2022-08-02T16:15:17.823Z,101240.72
2022-08-02T16:17:55.551Z,101271.00
2022-08-02T16:20:28.252Z,101249.69
2022-08-02T16:23:10.651Z,101237.81
2022-08-02T16:25:43.506Z,101236.91
2022-08-02T16:28:16.218Z,101210.38
2022-08-02T16:30:59.453Z,101242.31
2022-08-02T16:33:55.871Z,101242.97
2022-08-02T16:36:30.442Z,101209.59
2022-08-02T16:39:06.297Z,101226.31
2022-08-02T16:41:50.438Z,101236.47
2022-08-02T16:44:33.676Z,101248.09
2022-08-02T16:47:06.764Z,101211.38
2022-08-02T16:50:05.557Z,101255.91
2022-08-02T16:52:50.088Z,101197.41
2022-08-02T16:55:22.902Z,101189.75
2022-08-02T16:57:56.809Z,101183.97
2022-08-02T17:00:35.319Z,101178.47
2022-08-02T17:03:13.114Z,101195.22
2022-08-02T17:05:56.622Z,101175.84
2022-08-02T17:08:31.891Z,101186.72
2022-08-02T17:11:05.204Z,101172.22
2022-08-02T17:13:38.108Z,101223.81
2022-08-02T17:19:04.652Z,101195.94
2022-08-02T17:21:37.362Z,101208.00
2022-08-02T17:24:10.184Z,101229.44
2022-08-02T17:26:44.575Z,101175.50
2022-08-02T17:29:32.873Z,101242.16
2022-08-02T17:32:09.303Z,101200.00
2022-08-02T17:34:49.126Z,101168.25
2022-08-02T17:37:33.316Z,101234.91
2022-08-02T17:40:11.362Z,101237.22
2022-08-02T17:42:44.137Z,101189.59
2022-08-02T17:45:25.589Z,101195.28
2022-08-02T17:48:03.758Z,101241.13
2022-08-02T17:50:38.123Z,101173.00
2022-08-02T17:53:13.685Z,101234.16
2022-08-02T17:58:42.844Z,101218.94
2022-08-02T18:01:35.143Z,101171.63
2022-08-02T18:04:13.094Z,101242.53
2022-08-02T18:06:50.260Z,101213.66
2022-08-02T18:09:23.401Z,101211.91
2022-08-02T18:11:58.491Z,101215.81
2022-08-02T18:14:36.514Z,101200.19
2022-08-02T18:17:19.158Z,101216.72
2022-08-02T18:19:57.575Z,101209.59
2022-08-02T18:22:36.139Z,101170.00
2022-08-02T18:25:36.990Z,101243.72
2022-08-02T18:28:11.766Z,101218.97
2022-08-02T18:30:44.566Z,101215.88
2022-08-02T18:33:59.971Z,101201.31
2022-08-02T18:36:24.804Z,101217.00
2022-08-02T18:39:08.301Z,101223.94
2022-08-02T18:41:50.338Z,101249.38
2022-08-02T18:44:23.097Z,101242.72
2022-08-02T18:46:56.316Z,101187.00
2022-08-02T18:49:46.040Z,101184.13
2022-08-02T18:52:30.968Z,101230.06
2022-08-02T18:55:17.102Z,101188.56
2022-08-02T18:58:18.405Z,101168.38
2022-08-02T19:00:51.559Z,101180.94
2022-08-02T19:03:24.784Z,101222.25
2022-08-02T19:05:57.542Z,101158.13
2022-08-02T19:08:30.680Z,101150.16
2022-08-02T19:11:04.949Z,101184.75
2022-08-02T19:13:42.529Z,101206.31
2022-08-02T19:16:15.514Z,101171.06
2022-08-02T19:18:48.207Z,101161.81
2022-08-02T19:21:20.821Z,101230.81
2022-08-02T19:24:16.035Z,101198.69
2022-08-02T19:26:52.103Z,101175.06
2022-08-02T19:29:42.990Z,101209.94
2022-08-02T19:32:42.032Z,101233.00
2022-08-02T19:35:19.405Z,101197.50
2022-08-02T19:38:11.454Z,101185.53
2022-08-02T19:40:47.323Z,101145.91
2022-08-02T19:44:24.793Z,101229.97
2022-08-02T19:49:20.118Z,101216.69
2022-08-02T19:52:00.831Z,101178.06
2022-08-02T19:54:55.774Z,101211.13
2022-08-02T19:57:34.570Z,101207.22
2022-08-02T20:00:11.327Z,101235.59
2022-08-02T20:02:46.594Z,101188.66
2022-08-02T20:05:23.885Z,101153.41
2022-08-02T20:07:59.963Z,101232.78
2022-08-02T20:10:36.845Z,101204.44
2022-08-02T20:13:09.839Z,101216.78
2022-08-02T20:15:56.348Z,101196.44
2022-08-02T20:18:30.600Z,101246.28
2022-08-02T20:21:03.504Z,101165.56
2022-08-02T20:23:36.207Z,101198.59
2022-08-02T20:26:09.024Z,101196.88
2022-08-02T20:28:44.441Z,101260.31
2022-08-02T20:31:17.107Z,101202.63
2022-08-02T20:33:55.800Z,101199.81
2022-08-02T20:36:29.336Z,101272.88
2022-08-02T20:39:02.120Z,101203.34
2022-08-02T20:44:29.967Z,101218.06
2022-08-02T20:47:04.054Z,101205.72
2022-08-02T20:49:56.931Z,101219.81
2022-08-02T20:52:30.451Z,101245.72
2022-08-02T20:55:05.940Z,101214.66
2022-08-02T20:57:48.729Z,101194.00
2022-08-02T21:00:34.066Z,101283.63
2022-08-02T21:03:11.810Z,101233.78
2022-08-02T21:05:56.181Z,101230.84
2022-08-02T21:08:28.931Z,101208.16
2022-08-02T21:14:07.208Z,101201.91
2022-08-02T21:16:41.609Z,101282.94
2022-08-02T21:19:19.686Z,101212.13
2022-08-02T21:21:54.440Z,101220.16
2022-08-02T21:24:29.460Z,101285.22
2022-08-02T21:27:02.232Z,101244.94
2022-08-02T21:29:35.091Z,101236.34
2022-08-02T21:32:08.014Z,101216.25
2022-08-02T21:34:40.790Z,101278.78
2022-08-02T21:37:16.740Z,101251.34
2022-08-02T21:39:50.467Z,101273.69
2022-08-02T21:42:27.098Z,101230.84
2022-08-02T21:45:00.707Z,101199.53
2022-08-02T21:47:49.687Z,101233.34
2022-08-02T21:50:23.404Z,101280.47
2022-08-02T21:52:58.409Z,101277.16
2022-08-02T21:56:00.632Z,101188.59
2022-08-02T21:58:35.809Z,101281.59
2022-08-02T22:01:09.237Z,101292.81
2022-08-02T22:03:55.621Z,101256.91
2022-08-02T22:06:28.599Z,101224.44
2022-08-02T22:09:01.547Z,101287.97
2022-08-02T22:11:34.506Z,101250.72
2022-08-02T22:14:08.207Z,101258.91
2022-08-02T22:16:40.900Z,101282.13
2022-08-02T22:19:14.800Z,101219.31
2022-08-02T22:22:02.762Z,101217.84
2022-08-02T22:28:38.825Z,101300.25
2022-08-02T22:31:40.946Z,101295.19
2022-08-02T22:34:36.836Z,101297.09
2022-08-02T22:38:16.865Z,101295.28
2022-08-02T22:40:21.665Z,101257.25
2022-08-02T22:43:22.656Z,101305.88
2022-08-02T22:46:15.513Z,101271.38
2022-08-02T22:48:49.558Z,101310.63
2022-08-02T22:52:01.288Z,101296.25
2022-08-02T22:54:48.065Z,101258.63
2022-08-02T22:57:30.813Z,101239.72
2022-08-02T22:58:38.006Z,101195.25
2022-08-02T22:58:50.584Z,101185.34
2022-08-02T22:59:06.569Z,101167.44
2022-08-02T22:59:06.635Z,101214.56
2022-08-02T22:59:12.808Z,101263.69
2022-08-02T23:00:09.478Z,101270.56
2022-08-02T23:02:44.866Z,101305.31
2022-08-02T23:05:18.027Z,101254.19
2022-08-02T23:08:22.441Z,101216.38
2022-08-02T23:11:44.486Z,101218.06
2022-08-02T23:14:17.548Z,101210.94
2022-08-02T23:17:14.401Z,101270.97
2022-08-02T23:19:53.120Z,101260.56
2022-08-02T23:22:29.761Z,101304.19
2022-08-02T23:25:07.239Z,101255.16
2022-08-02T23:30:52.097Z,101298.13
2022-08-02T23:36:40.953Z,101224.34
2022-08-02T23:39:13.680Z,101286.22
2022-08-02T23:41:54.647Z,101242.19
2022-08-02T23:44:28.913Z,101268.84
2022-08-02T23:47:02.025Z,101223.75
2022-08-02T23:49:37.994Z,101211.94
2022-08-02T23:52:11.388Z,101260.03
2022-08-02T23:54:53.690Z,101189.75
2022-08-02T23:57:47.185Z,101208.66
